createdAt,value
2022-09-12T00:02:03.246Z,86.30
2022-09-12T00:04:30.425Z,87.52
2022-09-12T00:06:57.997Z,86.09
2022-09-12T00:09:26.335Z,86.74
2022-09-12T00:11:53.484Z,86.43
2022-09-12T00:14:20.476Z,87.47
2022-09-12T00:16:47.588Z,88.52
2022-09-12T00:19:16.047Z,88.09
2022-09-12T00:21:45.700Z,89.16
2022-09-12T00:24:12.709Z,87.80
2022-09-12T00:26:39.594Z,87.54
2022-09-12T00:29:06.785Z,87.86
2022-09-12T00:31:34.299Z,87.06
2022-09-12T00:34:02.274Z,88.00
2022-09-12T00:36:29.991Z,88.29
2022-09-12T00:38:57.480Z,89.17
2022-09-12T00:41:43.329Z,89.48
2022-09-12T00:44:10.496Z,88.63
2022-09-12T00:46:44.975Z,89.57
2022-09-12T00:49:33.230Z,89.61
2022-09-12T00:52:09.560Z,89.63
2022-09-12T00:54:39.494Z,89.80
2022-09-12T00:57:08.326Z,90.35
2022-09-12T00:59:46.207Z,90.07
2022-09-12T01:02:13.305Z,90.01
2022-09-12T01:04:41.266Z,89.82
2022-09-12T01:07:08.779Z,90.61
2022-09-12T01:09:36.731Z,90.31
2022-09-12T01:12:04.217Z,89.73
2022-09-12T01:14:31.723Z,89.50
2022-09-12T01:16:58.615Z,89.43
2022-09-12T01:19:25.465Z,90.14
2022-09-12T01:21:55.591Z,90.30
2022-09-12T01:24:25.405Z,91.35
2022-09-12T01:27:24.815Z,94.44
2022-09-12T01:30:05.303Z,96.22
2022-09-12T01:32:51.465Z,97.10
2022-09-12T01:35:24.552Z,97.23
2022-09-12T01:38:20.915Z,95.66
2022-09-12T01:40:57.230Z,96.21
2022-09-12T01:43:25.627Z,96.36
2022-09-12T01:45:55.763Z,96.10
2022-09-12T01:48:31.552Z,96.99
2022-09-12T01:50:58.668Z,97.92
2022-09-12T01:53:37.479Z,97.77
2022-09-12T01:56:08.571Z,98.39
2022-09-12T01:58:42.118Z,98.73
2022-09-12T02:01:33.622Z,99.24
2022-09-12T02:04:08.927Z,100.00
2022-09-12T02:06:44.404Z,100.00
2022-09-12T02:09:16.698Z,100.00
2022-09-12T02:11:44.878Z,100.00
2022-09-12T02:14:23.412Z,100.00
2022-09-12T02:17:07.585Z,100.00
2022-09-12T02:19:37.338Z,100.00
2022-09-12T02:22:04.982Z,100.00
2022-09-12T02:24:40.354Z,100.00
2022-09-12T02:27:11.571Z,100.00
2022-09-12T02:29:38.606Z,100.00
2022-09-12T02:32:11.907Z,100.00
2022-09-12T02:34:49.573Z,100.00
2022-09-12T02:37:26.043Z,100.00
2022-09-12T02:39:57.246Z,100.00
2022-09-12T02:42:24.557Z,100.00
2022-09-12T02:44:52.895Z,100.00
2022-09-12T02:47:24.171Z,100.00
2022-09-12T02:49:51.658Z,100.00
2022-09-12T02:52:18.851Z,100.00
2022-09-12T02:54:45.989Z,100.00
2022-09-12T02:57:23.050Z,100.00
2022-09-12T02:59:53.575Z,100.00
2022-09-12T03:02:23.639Z,100.00
2022-09-12T03:05:05.937Z,100.00
2022-09-12T03:07:33.007Z,100.00
2022-09-12T03:10:18.822Z,100.00
2022-09-12T03:12:45.704Z,100.00
2022-09-12T03:15:17.133Z,100.00
2022-09-12T03:17:56.271Z,100.00
2022-09-12T03:20:32.582Z,100.00
2022-09-12T03:23:04.386Z,100.00
2022-09-12T03:25:34.490Z,100.00
2022-09-12T03:28:08.228Z,100.00
2022-09-12T03:30:44.787Z,100.00
2022-09-12T03:33:12.631Z,100.00
2022-09-12T03:35:40.625Z,100.00
2022-09-12T03:38:08.266Z,100.00
2022-09-12T03:40:35.945Z,100.00
2022-09-12T03:43:03.051Z,100.00
2022-09-12T03:45:30.025Z,100.00
2022-09-12T03:47:57.004Z,100.00
2022-09-12T03:50:24.090Z,100.00
2022-09-12T03:52:51.126Z,100.00
2022-09-12T03:55:18.096Z,100.00
2022-09-12T03:57:46.121Z,100.00
2022-09-12T04:00:17.644Z,100.00
2022-09-12T04:02:48.793Z,100.00
2022-09-12T04:05:15.741Z,100.00
2022-09-12T04:07:42.855Z,100.00
2022-09-12T04:10:10.160Z,100.00
2022-09-12T04:12:37.329Z,100.00
2022-09-12T04:15:04.311Z,100.00
2022-09-12T04:17:31.713Z,100.00
2022-09-12T04:19:58.532Z,100.00
2022-09-12T04:22:25.429Z,100.00
2022-09-12T04:24:52.263Z,100.00
2022-09-12T04:27:19.213Z,100.00
2022-09-12T04:29:46.050Z,100.00
2022-09-12T04:32:14.077Z,100.00
2022-09-12T04:34:40.986Z,100.00
2022-09-12T04:37:07.887Z,100.00
2022-09-12T04:39:34.731Z,100.00
2022-09-12T04:42:03.303Z,100.00
2022-09-12T04:44:30.206Z,100.00
2022-09-12T04:46:57.353Z,100.00
2022-09-12T04:49:24.312Z,100.00
2022-09-12T04:51:53.168Z,100.00
2022-09-12T04:54:20.755Z,100.00
2022-09-12T04:56:49.032Z,100.00
2022-09-12T04:59:17.371Z,100.00
2022-09-12T05:01:44.377Z,100.00
2022-09-12T05:04:13.055Z,100.00
2022-09-12T05:06:41.236Z,100.00
2022-09-12T05:09:11.382Z,100.00
2022-09-12T05:12:03.192Z,100.00
2022-09-12T05:14:27.727Z,100.00
2022-09-12T05:16:56.525Z,98.80
2022-09-12T05:19:23.675Z,99.82
2022-09-12T05:21:50.531Z,99.94
2022-09-12T05:24:18.671Z,99.13
2022-09-12T05:26:45.566Z,98.84
2022-09-12T05:29:13.344Z,97.94
2022-09-12T05:31:40.439Z,98.38
2022-09-12T05:34:10.221Z,98.16
2022-09-12T05:36:37.531Z,98.18
2022-09-12T05:39:04.786Z,97.07
2022-09-12T05:41:33.666Z,96.25
2022-09-12T05:44:02.345Z,95.40
2022-09-12T05:46:30.517Z,94.01
2022-09-12T05:48:58.515Z,93.10
2022-09-12T05:51:26.990Z,93.74
2022-09-12T05:53:58.003Z,92.94
2022-09-12T05:56:26.045Z,92.62
2022-09-12T05:59:13.596Z,91.97
2022-09-12T06:01:41.044Z,92.01
2022-09-12T06:04:08.297Z,91.12
2022-09-12T06:06:45.411Z,91.16
2022-09-12T06:09:39.569Z,90.70
2022-09-12T06:12:09.005Z,89.08
2022-09-12T06:14:36.410Z,87.37
2022-09-12T06:17:07.522Z,86.51
2022-09-12T06:19:34.562Z,85.47
2022-09-12T06:22:01.977Z,84.02
2022-09-12T06:24:28.908Z,83.54
2022-09-12T06:26:56.045Z,83.68
2022-09-12T06:29:23.103Z,83.86
2022-09-12T06:31:50.345Z,84.38
2022-09-12T06:34:20.830Z,83.83
2022-09-12T06:36:48.842Z,85.17
2022-09-12T06:39:19.827Z,84.72
2022-09-12T06:41:47.410Z,85.39
2022-09-12T06:44:19.566Z,83.16
2022-09-12T06:46:46.826Z,82.29
2022-09-12T06:49:13.799Z,80.61
2022-09-12T06:51:42.309Z,79.61
2022-09-12T06:54:11.022Z,77.95
2022-09-12T06:56:38.163Z,79.03
2022-09-12T06:59:05.038Z,79.28
2022-09-12T07:01:33.102Z,79.65
2022-09-12T07:04:00.883Z,79.92
2022-09-12T07:06:32.098Z,79.79
2022-09-12T07:09:00.219Z,79.65
2022-09-12T07:11:28.372Z,80.22
2022-09-12T07:13:59.077Z,79.77
2022-09-12T07:16:26.150Z,79.15
2022-09-12T07:18:54.768Z,78.72
2022-09-12T07:21:22.096Z,78.86
2022-09-12T07:23:49.487Z,78.75
2022-09-12T07:26:16.624Z,78.96
2022-09-12T07:28:43.879Z,79.21
2022-09-12T07:31:15.246Z,78.85
2022-09-12T07:33:42.952Z,78.56
2022-09-12T07:36:16.978Z,78.65
2022-09-12T07:38:48.208Z,77.61
2022-09-12T07:41:15.182Z,77.80
2022-09-12T07:43:42.281Z,77.16
2022-09-12T07:46:09.801Z,76.36
2022-09-12T07:48:37.557Z,77.01
2022-09-12T07:51:05.954Z,76.73
2022-09-12T07:53:34.368Z,77.39
2022-09-12T07:56:03.252Z,76.92
2022-09-12T07:58:30.950Z,77.65
2022-09-12T08:01:02.674Z,77.89
2022-09-12T08:03:29.768Z,78.04
2022-09-12T08:06:03.230Z,77.75
2022-09-12T08:08:30.512Z,77.96
2022-09-12T08:10:59.958Z,78.06
2022-09-12T08:13:30.057Z,79.02
2022-09-12T08:16:00.159Z,79.39
2022-09-12T08:18:35.553Z,79.84
2022-09-12T08:21:04.167Z,78.42
2022-09-12T08:23:31.977Z,78.34
2022-09-12T08:26:06.070Z,77.67
2022-09-12T08:28:34.537Z,77.36
2022-09-12T08:31:05.747Z,77.05
2022-09-12T08:33:35.149Z,77.11
2022-09-12T08:36:05.787Z,76.41
2022-09-12T08:38:33.193Z,76.54
2022-09-12T08:41:06.096Z,75.50
2022-09-12T08:43:39.044Z,75.40
2022-09-12T08:46:18.606Z,75.17
2022-09-12T08:48:46.886Z,73.15
2022-09-12T08:51:16.141Z,72.06
2022-09-12T08:53:44.207Z,72.45
2022-09-12T08:56:12.085Z,72.38
2022-09-12T08:58:43.443Z,71.54
2022-09-12T09:01:26.236Z,70.45
2022-09-12T09:04:02.277Z,69.46
2022-09-12T09:06:35.334Z,69.24
2022-09-12T09:09:29.516Z,68.06
2022-09-12T09:12:15.238Z,68.96
2022-09-12T09:15:01.631Z,68.83
2022-09-12T09:17:50.117Z,70.23
2022-09-12T09:20:17.151Z,68.73
2022-09-12T09:22:47.894Z,67.90
2022-09-12T09:25:23.046Z,68.29
2022-09-12T09:27:50.116Z,67.64
2022-09-12T09:30:18.731Z,66.95
2022-09-12T09:32:49.444Z,67.68
2022-09-12T09:35:28.386Z,67.67
2022-09-12T09:38:08.916Z,66.91
2022-09-12T09:40:43.468Z,67.06
2022-09-12T09:43:24.425Z,66.81
2022-09-12T09:45:55.160Z,65.91
2022-09-12T09:48:32.734Z,65.04
2022-09-12T09:51:02.007Z,66.25
2022-09-12T09:53:46.428Z,66.47
2022-09-12T09:56:23.159Z,66.67
2022-09-12T09:58:50.547Z,65.35
2022-09-12T10:01:18.521Z,65.74
2022-09-12T10:03:50.714Z,65.93
2022-09-12T10:06:20.957Z,65.85
2022-09-12T10:08:50.022Z,65.45
2022-09-12T10:11:16.957Z,64.71
2022-09-12T10:13:53.466Z,63.18
2022-09-12T10:16:22.681Z,63.31
2022-09-12T10:18:53.125Z,63.29
2022-09-12T10:21:25.683Z,64.18
2022-09-12T10:24:13.259Z,65.01
2022-09-12T10:26:40.808Z,65.03
2022-09-12T10:29:13.717Z,65.34
2022-09-12T10:32:00.184Z,65.59
2022-09-12T10:34:28.197Z,65.27
2022-09-12T10:36:59.350Z,64.75
2022-09-12T10:39:27.074Z,64.57
2022-09-12T10:41:54.066Z,65.16
2022-09-12T10:44:29.665Z,64.93
2022-09-12T10:46:57.977Z,64.35
2022-09-12T10:49:26.765Z,64.11
2022-09-12T10:51:54.674Z,63.44
2022-09-12T10:54:23.887Z,62.33
2022-09-12T10:57:21.203Z,63.91
2022-09-12T11:00:17.713Z,62.44
2022-09-12T11:02:48.313Z,61.65
2022-09-12T11:05:22.821Z,60.63
2022-09-12T11:07:55.685Z,60.33
2022-09-12T11:10:38.037Z,61.50
2022-09-12T11:13:42.121Z,61.21
2022-09-12T11:16:23.230Z,60.28
2022-09-12T11:18:53.702Z,60.54
2022-09-12T11:21:26.666Z,60.46
2022-09-12T11:24:12.840Z,60.35
2022-09-12T11:26:58.389Z,60.34
2022-09-12T11:29:25.903Z,61.15
2022-09-12T11:32:05.299Z,61.63
2022-09-12T11:34:36.422Z,63.11
2022-09-12T11:37:18.087Z,63.92
2022-09-12T11:39:46.894Z,63.61
2022-09-12T11:42:22.648Z,64.28
2022-09-12T11:44:55.030Z,63.46
2022-09-12T11:47:23.012Z,62.71
2022-09-12T11:49:51.288Z,62.04
2022-09-12T11:52:25.081Z,62.17
2022-09-12T11:54:58.558Z,62.27
2022-09-12T11:57:25.524Z,61.48
2022-09-12T12:03:52.803Z,59.33
2022-09-12T12:06:22.943Z,60.03
2022-09-12T12:08:50.738Z,60.47
2022-09-12T12:11:34.152Z,60.48
2022-09-12T12:14:06.717Z,60.39
2022-09-12T12:16:37.411Z,61.16
2022-09-12T12:19:28.711Z,61.21
2022-09-12T12:21:55.968Z,61.27
2022-09-12T12:24:24.245Z,61.90
2022-09-12T12:26:55.447Z,60.81
2022-09-12T12:29:22.488Z,61.17
2022-09-12T12:31:59.245Z,60.91
2022-09-12T12:34:29.332Z,59.85
2022-09-12T12:36:56.472Z,59.71
2022-09-12T12:39:43.989Z,59.87
2022-09-12T12:42:31.394Z,59.43
2022-09-12T12:44:59.054Z,58.97
2022-09-12T12:47:29.093Z,58.88
2022-09-12T12:49:58.144Z,59.05
2022-09-12T12:52:25.727Z,59.16
2022-09-12T12:54:55.277Z,58.93
2022-09-12T12:57:22.378Z,58.34
2022-09-12T12:59:52.218Z,59.46
2022-09-12T13:02:41.277Z,58.90
2022-09-12T13:05:20.086Z,59.24
2022-09-12T13:07:48.356Z,60.04
2022-09-12T13:10:23.760Z,60.29
2022-09-12T13:12:51.508Z,59.85
2022-09-12T13:15:36.877Z,58.72
2022-09-12T13:18:12.115Z,59.49
2022-09-12T13:20:51.777Z,60.21
2022-09-12T13:23:26.516Z,60.78
2022-09-12T13:25:55.385Z,61.54
2022-09-12T13:28:22.297Z,60.91
2022-09-12T13:31:16.169Z,61.21
2022-09-12T13:33:48.809Z,61.49
2022-09-12T13:36:21.714Z,61.74
2022-09-12T13:38:55.220Z,61.32
2022-09-12T13:41:25.510Z,60.90
2022-09-12T13:43:52.766Z,60.62
2022-09-12T13:46:26.914Z,60.38
2022-09-12T13:48:54.074Z,60.85
2022-09-12T13:51:26.911Z,61.54
2022-09-12T13:53:58.472Z,60.81
2022-09-12T13:56:25.452Z,61.53
2022-09-12T13:58:54.234Z,61.90
2022-09-12T14:01:21.505Z,61.49
2022-09-12T14:04:08.756Z,61.93
2022-09-12T14:06:57.113Z,62.32
2022-09-12T14:09:26.124Z,62.78
2022-09-12T14:11:53.189Z,62.77
2022-09-12T14:14:27.930Z,63.03
2022-09-12T14:16:54.945Z,63.98
2022-09-12T14:19:24.796Z,63.50
2022-09-12T14:21:55.651Z,64.17
2022-09-12T14:24:24.606Z,64.07
2022-09-12T14:26:56.905Z,63.84
2022-09-12T14:29:25.389Z,64.41
2022-09-12T14:32:05.302Z,64.75
2022-09-12T14:34:32.424Z,65.00
2022-09-12T14:36:59.649Z,64.96
2022-09-12T14:39:29.844Z,65.34
2022-09-12T14:42:03.624Z,65.57
2022-09-12T14:44:31.338Z,65.58
2022-09-12T14:47:01.789Z,65.96
2022-09-12T14:49:36.820Z,65.88
2022-09-12T14:52:08.470Z,65.85
2022-09-12T14:54:37.500Z,66.00
2022-09-12T14:57:06.707Z,66.57
2022-09-12T14:59:33.524Z,67.10
2022-09-12T15:02:19.364Z,67.66
2022-09-12T15:04:55.720Z,67.20
2022-09-12T15:07:31.782Z,67.60
2022-09-12T15:10:28.490Z,67.68
2022-09-12T15:13:14.626Z,67.77
2022-09-12T15:15:43.301Z,67.89
2022-09-12T15:18:10.250Z,68.59
2022-09-12T15:20:38.971Z,68.60
2022-09-12T15:23:17.766Z,69.08
2022-09-12T15:25:45.140Z,69.66
2022-09-12T15:28:20.825Z,69.22
2022-09-12T15:30:50.631Z,69.74
2022-09-12T15:33:23.002Z,70.53
2022-09-12T15:35:50.534Z,69.62
2022-09-12T15:38:17.398Z,69.54
2022-09-12T15:40:45.938Z,69.14
2022-09-12T15:43:18.344Z,68.26
2022-09-12T15:45:46.259Z,68.68
2022-09-12T15:48:14.068Z,68.47
2022-09-12T15:50:43.896Z,69.32
2022-09-12T15:53:44.152Z,69.35
2022-09-12T15:56:14.978Z,70.28
2022-09-12T15:58:57.128Z,70.10
2022-09-12T16:01:25.671Z,70.32
2022-09-12T16:03:52.652Z,70.19
2022-09-12T16:06:19.498Z,70.29
2022-09-12T16:08:46.367Z,69.97
2022-09-12T16:11:21.319Z,69.70
2022-09-12T16:13:48.844Z,69.76
2022-09-12T16:16:15.846Z,69.91
2022-09-12T16:18:42.870Z,69.74
2022-09-12T16:21:20.304Z,69.99
2022-09-12T16:23:51.015Z,69.46
2022-09-12T16:26:18.340Z,69.45
2022-09-12T16:28:50.520Z,69.61
2022-09-12T16:31:18.913Z,69.25
2022-09-12T16:33:49.730Z,69.14
2022-09-12T16:36:19.032Z,69.26
2022-09-12T16:38:53.265Z,69.59
2022-09-12T16:41:25.534Z,69.48
2022-09-12T16:43:56.460Z,69.36
2022-09-12T16:46:43.519Z,69.22
2022-09-12T16:49:13.562Z,69.29
2022-09-12T16:51:50.417Z,69.44
2022-09-12T16:54:17.947Z,69.16
2022-09-12T16:57:04.767Z,69.67
2022-09-12T16:59:34.958Z,69.12
2022-09-12T17:02:02.445Z,69.22
2022-09-12T17:04:32.169Z,69.08
2022-09-12T17:07:01.407Z,69.33
2022-09-12T17:09:29.483Z,68.93
2022-09-12T17:11:58.992Z,68.63
2022-09-12T17:14:30.584Z,68.73
2022-09-12T17:16:57.690Z,68.73
2022-09-12T17:19:26.826Z,69.01
2022-09-12T17:21:54.138Z,67.94
2022-09-12T17:24:28.682Z,67.98
2022-09-12T17:26:58.328Z,67.78
2022-09-12T17:29:28.748Z,67.52
2022-09-12T17:31:56.300Z,67.56
2022-09-12T17:34:23.594Z,67.52
2022-09-12T17:36:52.147Z,67.25
2022-09-12T17:39:25.696Z,67.52
2022-09-12T17:41:54.766Z,67.05
2022-09-12T17:44:24.293Z,67.74
2022-09-12T17:47:00.376Z,67.69
2022-09-12T17:49:27.514Z,67.63
2022-09-12T17:51:59.537Z,68.15
2022-09-12T17:54:27.814Z,68.11
2022-09-12T17:56:56.342Z,68.25
2022-09-12T17:59:32.307Z,68.33
2022-09-12T18:02:14.568Z,68.30
2022-09-12T18:04:42.577Z,68.55
2022-09-12T18:07:18.824Z,68.24
2022-09-12T18:09:50.443Z,68.26
2022-09-12T18:12:19.121Z,68.28
2022-09-12T18:14:48.168Z,68.34
2022-09-12T18:17:15.468Z,68.41
2022-09-12T18:19:42.536Z,68.55
2022-09-12T18:22:09.677Z,68.46
2022-09-12T18:24:37.458Z,68.53
2022-09-12T18:30:43.312Z,68.51
2022-09-12T18:33:12.110Z,68.69
2022-09-12T18:35:38.998Z,68.59
2022-09-12T18:38:11.535Z,68.66
2022-09-12T18:40:44.742Z,68.71
2022-09-12T18:43:15.185Z,68.50
2022-09-12T18:45:42.581Z,68.71
2022-09-12T18:48:12.258Z,68.53
2022-09-12T18:50:49.210Z,68.89
2022-09-12T18:53:20.167Z,69.05
2022-09-12T18:55:47.835Z,69.14
2022-09-12T18:58:15.531Z,69.14
2022-09-12T19:00:44.927Z,69.39
2022-09-12T19:03:12.458Z,68.94
2022-09-12T19:05:40.117Z,69.22
2022-09-12T19:08:08.892Z,69.38
2022-09-12T19:10:37.092Z,69.19
2022-09-12T19:13:04.562Z,69.35
2022-09-12T19:15:33.061Z,69.72
2022-09-12T19:18:00.567Z,69.31
2022-09-12T19:20:27.360Z,69.64
2022-09-12T19:22:54.273Z,69.61
2022-09-12T19:25:21.217Z,70.27
2022-09-12T19:27:48.197Z,70.65
2022-09-12T19:30:15.190Z,70.89
2022-09-12T19:32:42.056Z,70.96
2022-09-12T19:35:27.855Z,70.85
2022-09-12T19:37:57.074Z,71.37
2022-09-12T19:40:24.039Z,71.39
2022-09-12T19:42:51.173Z,71.72
2022-09-12T19:45:17.977Z,71.95
2022-09-12T19:47:45.147Z,71.78
2022-09-12T19:50:13.204Z,71.97
2022-09-12T19:52:40.369Z,72.14
2022-09-12T19:55:07.606Z,72.22
2022-09-12T19:57:34.582Z,71.93
2022-09-12T20:00:01.516Z,72.37
2022-09-12T20:02:30.283Z,71.90
2022-09-12T20:04:57.351Z,72.34
2022-09-12T20:07:24.260Z,72.12
2022-09-12T20:09:51.140Z,72.14
2022-09-12T20:12:18.995Z,72.43
2022-09-12T20:14:45.843Z,72.05
2022-09-12T20:17:12.922Z,72.49
2022-09-12T20:19:39.939Z,72.24
2022-09-12T20:22:06.832Z,72.43
2022-09-12T20:24:35.862Z,72.16
2022-09-12T20:27:04.170Z,72.37
2022-09-12T20:29:31.915Z,72.25
2022-09-12T20:31:58.975Z,72.41
2022-09-12T20:34:25.999Z,72.68
2022-09-12T20:36:52.862Z,72.29
2022-09-12T20:39:21.041Z,72.56
2022-09-12T20:41:48.544Z,72.75
2022-09-12T20:44:15.432Z,72.85
2022-09-12T20:46:42.919Z,73.34
2022-09-12T20:49:10.043Z,73.45
2022-09-12T20:51:38.070Z,73.08
2022-09-12T20:54:06.150Z,73.82
2022-09-12T20:56:35.056Z,73.63
2022-09-12T20:59:02.427Z,73.79
2022-09-12T21:01:30.317Z,73.82
2022-09-12T21:03:57.270Z,73.90
2022-09-12T21:06:24.598Z,74.42
2022-09-12T21:08:51.773Z,74.58
2022-09-12T21:11:19.281Z,74.94
2022-09-12T21:13:46.306Z,74.74
2022-09-12T21:16:17.501Z,74.82
2022-09-12T21:18:44.964Z,75.19
2022-09-12T21:21:12.851Z,75.44
2022-09-12T21:23:40.311Z,75.71
2022-09-12T21:26:07.789Z,75.75
2022-09-12T21:28:34.858Z,75.64
2022-09-12T21:31:02.056Z,75.67
2022-09-12T21:33:28.975Z,75.78
2022-09-12T21:36:00.779Z,75.81
2022-09-12T21:38:27.607Z,75.83
2022-09-12T21:41:02.619Z,75.31
2022-09-12T21:43:29.568Z,75.60
2022-09-12T21:46:00.282Z,75.43
2022-09-12T21:48:27.825Z,75.07
2022-09-12T21:50:54.829Z,75.43
2022-09-12T21:53:21.903Z,75.53
2022-09-12T21:55:48.767Z,75.92
2022-09-12T21:58:15.744Z,75.64
2022-09-12T22:00:46.351Z,76.06
2022-09-12T22:03:13.317Z,76.18
2022-09-12T22:05:40.421Z,75.90
2022-09-12T22:08:07.740Z,75.73
2022-09-12T22:10:34.675Z,75.85
2022-09-12T22:13:01.588Z,76.01
2022-09-12T22:15:44.099Z,76.06
2022-09-12T22:18:11.599Z,75.88
2022-09-12T22:20:38.731Z,76.01
2022-09-12T22:23:25.217Z,75.85
2022-09-12T22:25:55.947Z,75.96
2022-09-12T22:28:23.315Z,75.79
2022-09-12T22:30:52.668Z,75.79
2022-09-12T22:33:19.493Z,75.79
2022-09-12T22:35:46.384Z,76.05
2022-09-12T22:38:13.437Z,76.18
2022-09-12T22:40:40.343Z,76.22
2022-09-12T22:43:07.264Z,76.23
2022-09-12T22:45:34.071Z,76.47
2022-09-12T22:48:03.311Z,76.04
2022-09-12T22:50:33.748Z,76.17
2022-09-12T22:53:00.623Z,76.03
2022-09-12T22:55:28.130Z,75.77
2022-09-12T22:57:56.481Z,76.34
2022-09-12T23:00:23.837Z,76.26
2022-09-12T23:02:50.883Z,75.88
2022-09-12T23:05:17.995Z,75.67
2022-09-12T23:07:44.852Z,75.20
2022-09-12T23:10:12.032Z,75.56
2022-09-12T23:12:38.982Z,75.33
2022-09-12T23:15:06.068Z,75.36
2022-09-12T23:17:35.019Z,75.56
2022-09-12T23:20:02.167Z,75.18
2022-09-12T23:22:29.977Z,75.39
2022-09-12T23:24:56.901Z,74.95
2022-09-12T23:27:27.308Z,74.96
2022-09-12T23:29:54.186Z,75.07
2022-09-12T23:32:21.431Z,75.27
2022-09-12T23:34:48.587Z,75.40
2022-09-12T23:37:15.864Z,75.89
2022-09-12T23:39:43.344Z,75.38
2022-09-12T23:42:10.243Z,75.47
2022-09-12T23:44:37.094Z,75.72
2022-09-12T23:47:04.066Z,75.32
2022-09-12T23:49:30.945Z,75.45
2022-09-12T23:51:57.757Z,75.52
2022-09-12T23:54:25.352Z,76.13
2022-09-12T23:56:52.254Z,76.27
2022-09-12T23:59:19.100Z,75.79
